createdAt,value
2022-10-14T00:03:23.795Z,0.98
2022-10-14T00:08:55.621Z,1.77
2022-10-14T00:14:27.277Z,2.12
2022-10-14T00:19:59.038Z,2.10
2022-10-14T00:31:00.779Z,1.63
2022-10-14T00:36:32.520Z,1.57
2022-10-14T00:42:04.603Z,1.43
2022-10-14T00:47:36.706Z,1.47
2022-10-14T00:53:08.497Z,1.66
2022-10-14T00:58:40.631Z,1.75
2022-10-14T01:04:12.469Z,1.63
2022-10-14T01:09:44.517Z,1.71
2022-10-14T01:15:16.293Z,1.90
2022-10-14T01:20:48.383Z,1.96
2022-10-14T01:26:20.227Z,1.91
2022-10-14T01:31:52.346Z,1.90
2022-10-14T01:37:24.384Z,1.95
2022-10-14T01:42:56.106Z,2.00
2022-10-14T01:48:27.835Z,2.10
2022-10-14T01:54:01.463Z,2.35
2022-10-14T01:59:33.550Z,2.45
2022-10-14T02:05:05.287Z,2.50
2022-10-14T02:10:37.084Z,2.60
2022-10-14T02:16:09.284Z,2.65
2022-10-14T02:21:41.555Z,2.70
2022-10-14T02:27:15.643Z,2.85
2022-10-14T02:32:47.525Z,3.10
2022-10-14T02:40:41.857Z,6.89
2022-10-14T02:46:13.380Z,5.41
2022-10-14T02:51:45.654Z,3.91
2022-10-14T02:57:17.600Z,3.18
2022-10-14T03:08:18.978Z,2.93
2022-10-14T03:13:50.821Z,2.80
2022-10-14T03:19:22.608Z,2.82
2022-10-14T03:24:54.378Z,2.83
2022-10-14T03:30:26.210Z,2.74
2022-10-14T03:38:18.677Z,2.95
2022-10-14T03:43:50.339Z,1.48
2022-10-14T03:49:22.036Z,1.64
2022-10-14T03:54:54.117Z,1.71
2022-10-14T04:00:25.817Z,1.96
2022-10-14T04:11:27.307Z,1.82
2022-10-14T04:16:59.206Z,1.84
2022-10-14T04:22:30.867Z,2.07
2022-10-14T04:28:02.745Z,1.96
2022-10-14T04:33:34.550Z,1.96
2022-10-14T04:39:06.280Z,1.88
2022-10-14T04:44:37.992Z,1.81
2022-10-14T04:50:10.211Z,1.96
2022-10-14T04:55:42.449Z,1.89
2022-10-14T05:01:14.507Z,1.96
2022-10-14T05:06:46.127Z,2.19
2022-10-14T05:12:18.066Z,2.18
2022-10-14T05:17:49.849Z,2.11
2022-10-14T05:23:21.552Z,2.10
2022-10-14T05:28:53.370Z,2.20
2022-10-14T05:34:25.028Z,2.20
2022-10-14T05:39:56.916Z,2.25
2022-10-14T05:45:28.650Z,2.30
2022-10-14T05:51:00.095Z,2.30
2022-10-14T05:56:32.458Z,2.30
2022-10-14T06:02:04.430Z,2.40
2022-10-14T06:07:36.242Z,2.55
2022-10-14T06:13:08.044Z,2.60
2022-10-14T06:18:39.639Z,2.65
2022-10-14T06:24:11.355Z,2.70
2022-10-14T06:29:43.059Z,2.80
2022-10-14T06:35:15.001Z,2.85
2022-10-14T06:40:46.795Z,2.85
2022-10-14T06:46:18.387Z,2.90
2022-10-14T06:51:49.905Z,3.05
2022-10-14T06:57:21.612Z,3.30
2022-10-14T07:02:53.537Z,3.45
2022-10-14T07:13:54.593Z,3.90
2022-10-14T07:19:26.195Z,3.90
2022-10-14T07:24:57.961Z,3.90
2022-10-14T07:30:30.081Z,4.25
2022-10-14T07:36:01.661Z,4.30
2022-10-14T07:41:33.216Z,4.40
2022-10-14T07:52:36.707Z,4.55
2022-10-14T07:58:08.666Z,4.60
2022-10-14T08:03:40.639Z,4.70
2022-10-14T08:14:44.410Z,4.80
2022-10-14T08:20:16.269Z,4.85
2022-10-14T08:31:17.525Z,4.95
2022-10-14T08:36:49.435Z,5.00
2022-10-14T08:42:21.874Z,5.10
2022-10-14T08:47:53.458Z,5.15
2022-10-14T08:53:25.463Z,5.40
2022-10-14T08:58:57.050Z,5.60
2022-10-14T09:04:28.703Z,5.95
2022-10-14T09:10:00.890Z,6.05
2022-10-14T09:21:04.037Z,6.25
2022-10-14T09:26:35.540Z,6.25
2022-10-14T09:32:07.546Z,6.35
2022-10-14T09:37:39.315Z,6.65
2022-10-14T09:43:11.386Z,6.65
2022-10-14T09:48:43.510Z,6.70
2022-10-14T09:54:15.803Z,6.80
2022-10-14T09:59:47.439Z,6.85
2022-10-14T10:05:19.190Z,6.90
2022-10-14T10:10:51.127Z,7.00
2022-10-14T10:16:22.744Z,7.00
2022-10-14T10:21:54.566Z,7.00
2022-10-14T10:27:26.536Z,7.30
2022-10-14T10:32:58.468Z,7.35
2022-10-14T10:38:30.638Z,7.35
2022-10-14T10:44:02.289Z,7.45
2022-10-14T10:49:39.917Z,7.55
2022-10-14T10:55:11.853Z,7.55
2022-10-14T11:00:43.996Z,7.65
2022-10-14T11:06:15.776Z,7.75
2022-10-14T11:11:47.501Z,7.80
2022-10-14T11:22:48.903Z,8.05
2022-10-14T11:28:26.640Z,8.05
2022-10-14T11:33:58.394Z,8.35
2022-10-14T11:39:31.985Z,8.45
2022-10-14T11:45:02.231Z,8.45
2022-10-14T11:50:34.072Z,8.60
2022-10-14T11:56:05.958Z,8.65
2022-10-14T12:01:38.316Z,8.70
2022-10-14T12:07:09.635Z,8.85
2022-10-14T12:12:41.605Z,8.90
2022-10-14T12:18:13.074Z,8.90
2022-10-14T12:23:45.014Z,8.95
2022-10-14T12:29:16.945Z,9.00
2022-10-14T12:34:48.785Z,9.10
2022-10-14T12:40:20.573Z,9.10
2022-10-14T12:45:52.138Z,9.25
2022-10-14T12:51:23.908Z,9.25
2022-10-14T12:56:55.677Z,9.50
2022-10-14T13:02:27.504Z,9.70
2022-10-14T13:07:59.369Z,9.75
2022-10-14T13:13:30.802Z,9.85
2022-10-14T13:19:02.798Z,9.90
2022-10-14T13:24:34.675Z,10.05
2022-10-14T13:30:06.251Z,10.05
2022-10-14T13:41:07.722Z,10.20
2022-10-14T13:46:39.722Z,10.25
2022-10-14T13:52:11.755Z,10.40
2022-10-14T13:58:10.925Z,10.45
2022-10-14T14:03:15.946Z,10.65
2022-10-14T14:08:47.711Z,10.75
2022-10-14T14:14:19.401Z,10.85
2022-10-14T14:19:51.774Z,11.00
2022-10-14T14:25:34.139Z,11.05
2022-10-14T14:30:55.459Z,11.15
2022-10-14T14:36:39.822Z,11.20
2022-10-14T14:41:59.276Z,11.30
2022-10-14T14:47:31.222Z,11.45
2022-10-14T14:53:03.314Z,11.65
2022-10-14T14:58:41.905Z,11.80
2022-10-14T15:04:14.645Z,12.00
2022-10-14T15:09:47.215Z,12.00
2022-10-14T15:20:48.834Z,12.15
2022-10-14T15:26:20.753Z,12.25
2022-10-14T15:31:54.951Z,12.30
2022-10-14T15:37:26.708Z,12.35
2022-10-14T15:42:58.893Z,12.35
2022-10-14T15:48:30.797Z,12.45
2022-10-14T15:54:02.734Z,12.45
2022-10-14T15:59:35.611Z,12.50
2022-10-14T16:05:19.194Z,12.60
2022-10-14T16:10:39.263Z,12.85
2022-10-14T16:16:11.276Z,13.05
2022-10-14T16:21:43.042Z,13.20
2022-10-14T16:27:14.936Z,13.25
2022-10-14T16:32:46.685Z,13.40
2022-10-14T16:38:18.408Z,13.50
2022-10-14T16:43:50.241Z,13.60
2022-10-14T16:49:22.257Z,13.75
2022-10-14T16:51:34.304Z,1.97
2022-10-14T16:57:06.160Z,1.97
2022-10-14T17:02:37.866Z,1.31
2022-10-14T17:08:09.649Z,1.22
2022-10-14T17:13:41.606Z,1.57
2022-10-14T17:19:13.192Z,1.31
2022-10-14T17:24:47.347Z,1.26
2022-10-14T17:30:19.210Z,1.35
2022-10-14T17:35:50.708Z,1.31
2022-10-14T17:41:22.827Z,1.47
2022-10-14T17:52:24.285Z,1.80
2022-10-14T17:57:55.871Z,1.73
2022-10-14T18:03:27.582Z,1.75
2022-10-14T18:08:59.505Z,1.96
2022-10-14T18:14:31.645Z,1.84
2022-10-14T18:22:24.234Z,2.95
2022-10-14T18:33:26.068Z,2.95
2022-10-14T18:38:57.605Z,2.45
2022-10-14T18:44:29.483Z,2.16
2022-10-14T19:01:02.590Z,1.71
2022-10-14T19:06:34.079Z,1.63
2022-10-14T19:12:08.103Z,1.47
2022-10-14T19:17:40.075Z,1.60
2022-10-14T19:23:11.607Z,1.47
2022-10-14T19:28:43.732Z,1.51
2022-10-14T19:34:15.278Z,1.61
2022-10-14T19:39:47.135Z,1.70
2022-10-14T19:45:18.738Z,1.59
2022-10-14T19:50:50.678Z,1.50
2022-10-14T19:56:22.646Z,1.69
2022-10-14T20:12:55.400Z,1.95
2022-10-14T20:18:28.273Z,2.00
2022-10-14T20:23:59.705Z,2.10
2022-10-14T20:29:31.523Z,2.30
2022-10-14T20:35:03.328Z,2.35
2022-10-14T20:40:34.924Z,2.45
2022-10-14T20:46:06.866Z,2.70
2022-10-14T20:51:38.598Z,2.75
2022-10-14T20:57:10.587Z,2.85
2022-10-14T21:08:14.118Z,3.25
2022-10-14T21:13:45.897Z,3.30
2022-10-14T21:19:17.910Z,3.40
2022-10-14T21:24:49.616Z,3.45
2022-10-14T21:30:21.037Z,3.50
2022-10-14T21:35:52.816Z,3.55
2022-10-14T21:41:25.039Z,3.65
2022-10-14T21:46:56.917Z,3.70
2022-10-14T21:52:28.659Z,3.85
2022-10-14T21:58:00.590Z,3.95
2022-10-14T22:03:31.921Z,3.95
2022-10-14T22:09:04.078Z,3.95
2022-10-14T22:14:35.705Z,4.10
2022-10-14T22:20:07.787Z,4.15
2022-10-14T22:25:40.014Z,4.15
2022-10-14T22:31:11.677Z,4.20
2022-10-14T22:36:43.672Z,4.30
2022-10-14T22:42:15.546Z,4.45
2022-10-14T22:47:47.210Z,4.70
2022-10-14T22:58:49.132Z,4.85
2022-10-14T23:04:20.826Z,4.85
2022-10-14T23:09:52.809Z,5.10
2022-10-14T23:15:24.422Z,5.35
2022-10-14T23:20:56.238Z,5.55
2022-10-14T23:26:27.821Z,5.65
2022-10-14T23:31:59.903Z,5.80
2022-10-14T23:37:31.568Z,5.90
2022-10-14T23:43:03.368Z,6.00
2022-10-14T23:48:35.435Z,6.00
2022-10-14T23:54:07.161Z,6.05
2022-10-14T23:59:38.911Z,6.15
